Whale Watcher II — WDB8211 — position and weather

sailwx.info

Track history (hours):
 
Tides and Currents Weather Stations Pressure Air Temp Water Temp Dewpoint Dewpoint Depression Visibility Wind Speed Wind Dir Waves Ship Positions

Whale Watcher II

Owner: Ronald L. Robbins LLC, Cape May, NJ. More information available from US FCC via Universal Licensing System and Coast Guard Vessel Documentation Center.

Last reported at 2015-Aug-02 04:04 UTC. Time now 2015-Aug-03 08:38 UTC.
Position N 29°56' W 090°12'.

Length 22 m.

Type: Towing. MMSI: 367011790.

Date/timePositionNaut miles runAvg speedWind from/ knotsBaromVisibWave heightAir tempDewpointWater temp
2015-Aug-02 04:04N 29°56' W 090°12'3 4.7
2015-Aug-02 03:27N 29°57' W 090°09'4 4.1
2015-Aug-02 02:33N 29°55' W 090°06'2 2.1
2015-Aug-02 01:30N 29°56' W 090°04'0 0.0
2015-Aug-02 00:33N 29°56' W 090°04'0 0.0
2015-Aug-01 23:33N 29°56' W 090°04'1 0.0
2015-Jul-31 23:30N 29°57' W 090°03'1 1.2
2015-Jul-31 22:33N 29°56' W 090°04'2 1.9
2015-Jul-31 21:31N 29°55' W 090°06'0 0.0
2015-Jul-31 20:30N 29°55' W 090°06'0 0.0
2015-Jul-31 19:33N 29°55' W 090°06'0 0.0
2015-Jul-31 18:32N 29°55' W 090°06'0 0.0
2015-Jul-31 17:32N 29°55' W 090°06'0 0.0
2015-Jul-31 16:32N 29°55' W 090°06'0 0.0
2015-Jul-31 15:33N 29°55' W 090°06'0 0.0
2015-Jul-31 14:33N 29°55' W 090°06'0 0.0
2015-Jul-31 13:33N 29°55' W 090°06'2 1.7
2015-Jul-31 12:32N 29°55' W 090°04'0 0.0
2015-Jul-31 11:21N 29°55' W 090°04'0 0.0
2015-Jul-31 10:29N 29°55' W 090°04'0 0.0
2015-Jul-30 13:34N 29°55' W 090°04'0 0.0
2015-Jul-30 12:31N 29°55' W 090°04'1 1.3
2015-Jul-30 11:31N 29°57' W 090°03'3 2.4
2015-Jul-30 10:29N 29°56' W 090°00'  
2015-Jul-26 21:20N 29°55' W 090°04'0 0.0
2015-Jul-26 20:16N 29°55' W 090°04'0 0.0
2015-Jul-26 18:26N 29°55' W 090°04'0 0.0
2015-Jul-26 17:06N 29°55' W 090°04'0 0.0
2015-Jul-26 16:22N 29°55' W 090°04'0 0.0
2015-Jul-26 15:15N 29°55' W 090°04'0 0.0
2015-Jul-26 14:30N 29°55' W 090°04'0 0.0
2015-Jul-26 13:29N 29°55' W 090°04'0 0.2
2015-Jul-26 12:27N 29°55' W 090°04'2 1.2
2015-Jul-26 10:29N 29°57' W 090°03'3 2.7
2015-Jul-26 09:29N 29°56' W 089°60'1 1.2
2015-Jul-26 08:13N 29°56' W 089°58'0 0.0
2015-Jul-26 01:24N 29°55' W 089°58'5 5.5
2015-Jul-26 00:30N 29°55' W 090°04'0 0.0
2015-Jul-25 23:23N 29°55' W 090°04'0 0.0
2015-Jul-25 22:31N 29°55' W 090°04'2 0.1
2015-Jul-24 11:33N 29°58' W 090°03'2 2.3
2015-Jul-24 10:33N 29°55' W 090°04'0 0.0
2015-Jul-24 09:33N 29°55' W 090°04'0 0.0
2015-Jul-24 08:33N 29°55' W 090°04'2 1.8
2015-Jul-24 07:30N 29°57' W 090°03'4 3.5
2015-Jul-24 06:28N 29°56' W 089°60'0 0.0
2015-Jul-24 05:20N 29°56' W 089°60'  
Track history (hours):
 
Tides and Currents Weather Stations Pressure Air Temp Water Temp Dewpoint Dewpoint Depression Visibility Wind Speed Wind Dir Waves Ship Positions

Whale Watcher II

Owner: Ronald L. Robbins LLC, Cape May, NJ. More information available from US FCC via Universal Licensing System and Coast Guard Vessel Documentation Center.

Last reported at 2015-Aug-02 04:04 UTC. Time now 2015-Aug-03 08:38 UTC.
Position N 29°56' W 090°12'.

Length 22 m.

Type: Towing. MMSI: 367011790.

Date/timePositionNaut miles runAvg speedWind from/ knotsBaromVisibWave heightAir tempDewpointWater temp
2015-Aug-02 04:04N 29°56' W 090°12'3 4.7
2015-Aug-02 03:27N 29°57' W 090°09'4 4.1
2015-Aug-02 02:33N 29°55' W 090°06'2 2.1
2015-Aug-02 01:30N 29°56' W 090°04'0 0.0
2015-Aug-02 00:33N 29°56' W 090°04'0 0.0
2015-Aug-01 23:33N 29°56' W 090°04'1 0.0
2015-Jul-31 23:30N 29°57' W 090°03'1 1.2
2015-Jul-31 22:33N 29°56' W 090°04'2 1.9
2015-Jul-31 21:31N 29°55' W 090°06'0 0.0
2015-Jul-31 20:30N 29°55' W 090°06'0 0.0
2015-Jul-31 19:33N 29°55' W 090°06'0 0.0
2015-Jul-31 18:32N 29°55' W 090°06'0 0.0
2015-Jul-31 17:32N 29°55' W 090°06'0 0.0
2015-Jul-31 16:32N 29°55' W 090°06'0 0.0
2015-Jul-31 15:33N 29°55' W 090°06'0 0.0
2015-Jul-31 14:33N 29°55' W 090°06'0 0.0
2015-Jul-31 13:33N 29°55' W 090°06'2 1.7
2015-Jul-31 12:32N 29°55' W 090°04'0 0.0
2015-Jul-31 11:21N 29°55' W 090°04'0 0.0
2015-Jul-31 10:29N 29°55' W 090°04'0 0.0
2015-Jul-30 13:34N 29°55' W 090°04'0 0.0
2015-Jul-30 12:31N 29°55' W 090°04'1 1.3
2015-Jul-30 11:31N 29°57' W 090°03'3 2.4
2015-Jul-30 10:29N 29°56' W 090°00'  
2015-Jul-26 21:20N 29°55' W 090°04'0 0.0
2015-Jul-26 20:16N 29°55' W 090°04'0 0.0
2015-Jul-26 18:26N 29°55' W 090°04'0 0.0
2015-Jul-26 17:06N 29°55' W 090°04'0 0.0
2015-Jul-26 16:22N 29°55' W 090°04'0 0.0
2015-Jul-26 15:15N 29°55' W 090°04'0 0.0
2015-Jul-26 14:30N 29°55' W 090°04'0 0.0
2015-Jul-26 13:29N 29°55' W 090°04'0 0.2
2015-Jul-26 12:27N 29°55' W 090°04'2 1.2
2015-Jul-26 10:29N 29°57' W 090°03'3 2.7
2015-Jul-26 09:29N 29°56' W 089°60'1 1.2
2015-Jul-26 08:13N 29°56' W 089°58'0 0.0
2015-Jul-26 01:24N 29°55' W 089°58'5 5.5
2015-Jul-26 00:30N 29°55' W 090°04'0 0.0
2015-Jul-25 23:23N 29°55' W 090°04'0 0.0
2015-Jul-25 22:31N 29°55' W 090°04'2 0.1
2015-Jul-24 11:33N 29°58' W 090°03'2 2.3
2015-Jul-24 10:33N 29°55' W 090°04'0 0.0
2015-Jul-24 09:33N 29°55' W 090°04'0 0.0
2015-Jul-24 08:33N 29°55' W 090°04'2 1.8
2015-Jul-24 07:30N 29°57' W 090°03'4 3.5
2015-Jul-24 06:28N 29°56' W 089°60'0 0.0
2015-Jul-24 05:20N 29°56' W 089°60'  

Dump ship's entire track history